Time;durP1;ratioP1;P1;durP2;ratioP2;P2;SDS_P1;SDS_P2;PMS_P1;PMS_P2;Temp;Humidity;BMP_temperature;BMP_pressure;BME280_temperature;BME280_humidity;BME280_pressure;Samples;Min_cycle;Max_cycle;Signal;HPM_P1;HPM_P2
2022/07/28 00:02:12;;;;;;;2.13;1.00;;;;;;;;;;4880356;29;20119;-67
2022/07/28 00:04:38;;;;;;;4.43;1.00;;;;;;;;;;4880045;29;20045;-67
2022/07/28 00:07:04;;;;;;;2.03;0.90;;;;;;;;;;4883551;29;20021;-68
2022/07/28 00:09:30;;;;;;;2.80;0.90;;;;;;;;;;4879614;29;20455;-68
2022/07/28 00:11:57;;;;;;;2.35;1.00;;;;;;;;;;4880318;29;20024;-68
2022/07/28 00:14:24;;;;;;;3.15;0.95;;;;;;;;;;4879978;29;20482;-67
2022/07/28 00:16:50;;;;;;;2.25;0.98;;;;;;;;;;4879981;29;20040;-68
2022/07/28 00:19:17;;;;;;;3.90;1.00;;;;;;;;;;4879888;29;20033;-67
2022/07/28 00:21:43;;;;;;;3.97;1.10;;;;;;;;;;4880003;29;20024;-67
2022/07/28 00:24:09;;;;;;;2.33;1.15;;;;;;;;;;4879658;29;20047;-68
2022/07/28 00:26:36;;;;;;;2.35;1.10;;;;;;;;;;4880056;29;20029;-68
2022/07/28 00:29:02;;;;;;;1.95;1.00;;;;;;;;;;4879599;29;20499;-68
2022/07/28 00:31:28;;;;;;;4.65;1.17;;;;;;;;;;4879974;29;20029;-68
2022/07/28 00:33:55;;;;;;;2.63;1.20;;;;;;;;;;4879589;29;20088;-68
2022/07/28 00:36:21;;;;;;;1.58;0.95;;;;;;;;;;4879579;29;20442;-68
2022/07/28 00:38:48;;;;;;;3.08;1.40;;;;;;;;;;4879218;29;20025;-66
2022/07/28 00:41:15;;;;;;;3.90;1.10;;;;;;;;;;4879651;29;20040;-67
2022/07/28 00:43:43;;;;;;;1.95;1.00;;;;;;;;;;4879589;29;20402;-67
2022/07/28 00:46:09;;;;;;;2.13;1.10;;;;;;;;;;4879555;29;20035;-67
2022/07/28 00:48:39;;;;;;;2.58;1.05;;;;;;;;;;4879281;29;20032;-67
2022/07/28 00:51:08;;;;;;;3.45;1.00;;;;;;;;;;4879536;29;20037;-67
2022/07/28 00:53:34;;;;;;;2.35;1.02;;;;;;;;;;4879074;29;20055;-67
2022/07/28 00:56:01;;;;;;;4.57;0.93;;;;;;;;;;4879332;29;20409;-67
2022/07/28 00:58:27;;;;;;;2.00;0.80;;;;;;;;;;4879196;29;20029;-67
2022/07/28 01:00:54;;;;;;;3.08;1.27;;;;;;;;;;4879279;29;20035;-67
2022/07/28 01:03:21;;;;;;;9.38;1.25;;;;;;;;;;4879166;29;20045;-67
2022/07/28 01:05:53;;;;;;;5.85;1.17;;;;;;;;;;4879068;29;20508;-67
2022/07/28 01:08:32;;;;;;;2.05;1.00;;;;;;;;;;4881763;29;20033;-68
2022/07/28 01:11:11;;;;;;;2.53;1.20;;;;;;;;;;4879032;29;20032;-67
2022/07/28 01:13:43;;;;;;;2.53;0.90;;;;;;;;;;4879299;29;20051;-68
2022/07/28 01:16:09;;;;;;;4.95;1.20;;;;;;;;;;4879103;29;20028;-68
2022/07/28 01:18:41;;;;;;;4.10;1.10;;;;;;;;;;4879128;29;20023;-67
2022/07/28 01:21:12;;;;;;;1.70;1.10;;;;;;;;;;4878156;29;20399;-68
2022/07/28 01:23:38;;;;;;;;;;;;;;;;;;4878977;29;20516;-68
2022/07/28 01:26:27;;;;;;;2.67;1.00;;;;;;;;;;4879043;29;19907;-67
2022/07/28 01:29:03;;;;;;;7.22;1.20;;;;;;;;;;4877855;29;20033;-68
2022/07/28 01:31:55;;;;;;;1.20;0.88;;;;;;;;;;4878910;29;20033;-68
2022/07/28 01:34:44;;;;;;;6.68;1.00;;;;;;;;;;4874818;29;20047;-68
2022/07/28 01:37:12;;;;;;;1.67;1.02;;;;;;;;;;4878285;29;20076;-67
2022/07/28 01:39:41;;;;;;;2.80;1.20;;;;;;;;;;4862096;29;20029;-67
2022/07/28 01:42:08;;;;;;;1.48;1.15;;;;;;;;;;4878721;29;20041;-68
2022/07/28 01:44:37;;;;;;;3.90;0.98;;;;;;;;;;4878486;29;20398;-68
2022/07/28 01:47:06;;;;;;;1.50;0.80;;;;;;;;;;4878790;29;20033;-68
2022/07/28 01:49:34;;;;;;;2.95;1.02;;;;;;;;;;4878808;29;20111;-68
2022/07/28 01:52:02;;;;;;;2.10;1.00;;;;;;;;;;4878150;29;20063;-68
2022/07/28 01:54:30;;;;;;;4.18;1.08;;;;;;;;;;4878591;29;20036;-67
2022/07/28 01:56:58;;;;;;;1.65;1.00;;;;;;;;;;4878496;29;20032;-67
2022/07/28 01:59:25;;;;;;;3.55;1.15;;;;;;;;;;4878205;29;20039;-68
2022/07/28 02:01:53;;;;;;;1.45;1.25;;;;;;;;;;4878405;29;20025;-67
2022/07/28 02:04:20;;;;;;;2.30;1.10;;;;;;;;;;4878337;29;20096;-68
2022/07/28 02:06:48;;;;;;;2.42;1.25;;;;;;;;;;4880933;29;20495;-67
2022/07/28 02:09:14;;;;;;;3.75;1.15;;;;;;;;;;4878252;29;20040;-67
2022/07/28 02:11:41;;;;;;;2.13;1.13;;;;;;;;;;4878263;29;20025;-67
2022/07/28 02:14:12;;;;;;;1.40;1.13;;;;;;;;;;4878329;29;20029;-67
2022/07/28 02:16:40;;;;;;;2.05;1.17;;;;;;;;;;4878223;29;20035;-67
2022/07/28 02:19:07;;;;;;;2.63;1.08;;;;;;;;;;4878126;29;20022;-67
2022/07/28 02:21:34;;;;;;;1.42;0.90;;;;;;;;;;4878236;29;20041;-67
2022/07/28 02:24:01;;;;;;;1.23;1.00;;;;;;;;;;4878376;29;20032;-67
2022/07/28 02:26:28;;;;;;;2.20;0.90;;;;;;;;;;4878137;29;20032;-67
2022/07/28 02:28:56;;;;;;;2.63;1.10;;;;;;;;;;4877993;29;20033;-67
2022/07/28 02:31:26;;;;;;;4.60;1.50;;;;;;;;;;4878121;29;20045;-68
2022/07/28 02:33:55;;;;;;;1.85;1.25;;;;;;;;;;4877712;29;20029;-67
2022/07/28 02:36:36;;;;;;;3.67;1.30;;;;;;;;;;4878330;29;20025;-68
2022/07/28 02:39:06;;;;;;;2.50;1.17;;;;;;;;;;4877965;29;20047;-67
2022/07/28 02:41:33;;;;;;;1.20;1.02;;;;;;;;;;4877985;29;20033;-67
2022/07/28 02:44:01;;;;;;;2.15;1.10;;;;;;;;;;4877980;29;20029;-67
2022/07/28 02:46:41;;;;;;;2.35;1.10;;;;;;;;;;4880183;29;20043;-67
2022/07/28 02:49:12;;;;;;;2.75;1.50;;;;;;;;;;4881162;29;20105;-68
2022/07/28 02:51:40;;;;;;;1.77;1.00;;;;;;;;;;4881597;29;20029;-67
2022/07/28 02:54:06;;;;;;;1.63;1.00;;;;;;;;;;4881657;29;20029;-67
2022/07/28 02:56:33;;;;;;;1.73;1.40;;;;;;;;;;4881675;29;20025;-67
2022/07/28 02:59:00;;;;;;;6.13;1.20;;;;;;;;;;4881318;29;20493;-67
2022/07/28 03:01:27;;;;;;;1.27;1.17;;;;;;;;;;4881637;29;20033;-67
2022/07/28 03:03:53;;;;;;;2.05;1.10;;;;;;;;;;4880741;29;20049;-67
2022/07/28 03:06:21;;;;;;;3.08;1.27;;;;;;;;;;4884615;29;20033;-67
2022/07/28 03:08:49;;;;;;;7.20;1.20;;;;;;;;;;4862632;29;20026;-67
2022/07/28 03:11:16;;;;;;;3.20;1.38;;;;;;;;;;4862494;29;20044;-67
2022/07/28 03:13:42;;;;;;;2.40;1.10;;;;;;;;;;4862494;29;20073;-67
2022/07/28 03:16:08;;;;;;;2.95;1.02;;;;;;;;;;4862610;29;20049;-67
2022/07/28 03:18:35;;;;;;;6.88;1.10;;;;;;;;;;4862333;29;20030;-67
2022/07/28 03:21:01;;;;;;;1.67;1.20;;;;;;;;;;4862226;29;20039;-67
2022/07/28 03:23:41;;;;;;;3.88;1.20;;;;;;;;;;4862259;29;20384;-67
2022/07/28 03:26:16;;;;;;;6.57;1.20;;;;;;;;;;4845902;29;20030;-67
2022/07/28 03:28:44;;;;;;;3.03;1.23;;;;;;;;;;4862184;29;20415;-68
2022/07/28 03:31:11;;;;;;;2.55;1.10;;;;;;;;;;4862458;29;20056;-67
2022/07/28 03:33:38;;;;;;;4.40;1.20;;;;;;;;;;4861867;29;20423;-67
2022/07/28 03:36:09;;;;;;;2.83;1.00;;;;;;;;;;4862129;29;20035;-67
2022/07/28 03:38:57;;;;;;;3.35;1.35;;;;;;;;;;4862217;29;20035;-67
2022/07/28 03:41:24;;;;;;;2.10;1.30;;;;;;;;;;4862119;29;20097;-67
2022/07/28 03:43:51;;;;;;;2.35;1.10;;;;;;;;;;4862328;29;20036;-67
2022/07/28 03:46:20;;;;;;;1.60;1.10;;;;;;;;;;4862009;29;20026;-68
2022/07/28 03:48:46;;;;;;;4.63;1.33;;;;;;;;;;4861712;29;20104;-67
2022/07/28 03:51:12;;;;;;;1.58;1.15;;;;;;;;;;4861923;29;20037;-67
2022/07/28 03:53:39;;;;;;;5.30;1.25;;;;;;;;;;4861968;29;20032;-67
2022/07/28 03:56:06;;;;;;;1.90;1.20;;;;;;;;;;4861837;29;20038;-67
2022/07/28 03:58:32;;;;;;;2.58;1.30;;;;;;;;;;4861309;29;20033;-67
2022/07/28 04:00:59;;;;;;;2.65;1.10;;;;;;;;;;4861466;29;20036;-67
2022/07/28 04:03:26;;;;;;;1.40;1.30;;;;;;;;;;4861585;29;20072;-67
2022/07/28 04:05:54;;;;;;;2.70;1.20;;;;;;;;;;4861653;29;20026;-67
2022/07/28 04:08:21;;;;;;;4.57;1.50;;;;;;;;;;4882781;29;20040;-67
2022/07/28 04:10:47;;;;;;;3.63;1.30;;;;;;;;;;4880073;29;20475;-67
2022/07/28 04:13:13;;;;;;;2.38;1.48;;;;;;;;;;4880064;29;20037;-68
2022/07/28 04:15:40;;;;;;;3.15;1.30;;;;;;;;;;4879762;29;20025;-67
2022/07/28 04:18:06;;;;;;;2.78;1.40;;;;;;;;;;4880246;29;20036;-68
2022/07/28 04:20:33;;;;;;;2.47;1.27;;;;;;;;;;4880038;29;20025;-67
2022/07/28 04:22:59;;;;;;;5.70;1.50;;;;;;;;;;4879977;29;20029;-67
2022/07/28 04:25:26;;;;;;;6.85;4.53;;;;;;;;;;4879872;29;20029;-67
2022/07/28 04:27:53;;;;;;;8.88;4.25;;;;;;;;;;4879812;29;20059;-67
2022/07/28 04:30:23;;;;;;;4.85;2.53;;;;;;;;;;4879304;29;20513;-67
2022/07/28 04:32:50;;;;;;;2.35;1.30;;;;;;;;;;4879638;29;20029;-67
2022/07/28 04:35:17;;;;;;;4.40;1.40;;;;;;;;;;4879784;29;20033;-67
2022/07/28 04:37:43;;;;;;;2.63;1.35;;;;;;;;;;4879749;29;20021;-67
2022/07/28 04:40:10;;;;;;;2.38;1.42;;;;;;;;;;4879614;29;20028;-67
2022/07/28 04:42:37;;;;;;;2.78;1.45;;;;;;;;;;4879604;29;20039;-67
2022/07/28 04:45:05;;;;;;;9.15;1.50;;;;;;;;;;4879314;29;20021;-67
2022/07/28 04:47:31;;;;;;;3.97;1.20;;;;;;;;;;4879545;29;20025;-67
2022/07/28 04:49:57;;;;;;;5.28;1.50;;;;;;;;;;4879253;29;20413;-67
2022/07/28 04:52:25;;;;;;;6.55;1.45;;;;;;;;;;4879316;29;20022;-67
2022/07/28 04:54:52;;;;;;;2.97;1.05;;;;;;;;;;4879569;29;20033;-67
2022/07/28 04:57:19;;;;;;;3.50;1.42;;;;;;;;;;4879491;29;20025;-67
2022/07/28 04:59:45;;;;;;;4.90;1.10;;;;;;;;;;4878758;29;20043;-68
2022/07/28 05:02:11;;;;;;;3.40;1.40;;;;;;;;;;4879476;29;20033;-67
2022/07/28 05:04:38;;;;;;;1.95;1.38;;;;;;;;;;4879052;29;20425;-67
2022/07/28 05:07:05;;;;;;;3.60;1.45;;;;;;;;;;4882365;29;20035;-68
2022/07/28 05:09:31;;;;;;;1.88;1.15;;;;;;;;;;4878316;29;20040;-67
2022/07/28 05:11:58;;;;;;;5.55;1.50;;;;;;;;;;4879071;29;20394;-67
2022/07/28 05:14:24;;;;;;;2.65;1.50;;;;;;;;;;4878760;29;20025;-67
2022/07/28 05:16:51;;;;;;;2.72;1.40;;;;;;;;;;4879243;29;20021;-67
2022/07/28 05:19:17;;;;;;;4.25;1.48;;;;;;;;;;4878924;29;20033;-67
2022/07/28 05:21:44;;;;;;;4.20;1.30;;;;;;;;;;4878954;29;20021;-68
2022/07/28 05:24:12;;;;;;;6.93;1.60;;;;;;;;;;4878886;29;20481;-67
2022/07/28 05:26:38;;;;;;;5.00;1.50;;;;;;;;;;4879164;29;20029;-67
2022/07/28 05:29:04;;;;;;;7.72;1.52;;;;;;;;;;4878441;29;20048;-67
2022/07/28 05:31:31;;;;;;;4.68;1.58;;;;;;;;;;4878713;29;20455;-67
2022/07/28 05:33:57;;;;;;;3.08;1.40;;;;;;;;;;4878854;29;20021;-67
2022/07/28 05:36:23;;;;;;;2.65;1.40;;;;;;;;;;4878567;29;20390;-67
2022/07/28 05:38:50;;;;;;;6.85;1.30;;;;;;;;;;4878590;29;20403;-67
2022/07/28 05:41:16;;;;;;;8.40;1.70;;;;;;;;;;4878754;29;20031;-67
2022/07/28 05:43:42;;;;;;;3.88;1.50;;;;;;;;;;4878564;29;20021;-67
2022/07/28 05:46:09;;;;;;;2.88;1.60;;;;;;;;;;4878614;29;20036;-67
2022/07/28 05:48:35;;;;;;;7.35;1.80;;;;;;;;;;4878366;29;20043;-67
2022/07/28 05:51:01;;;;;;;5.32;1.67;;;;;;;;;;4878504;29;20035;-68
2022/07/28 05:53:28;;;;;;;3.30;1.80;;;;;;;;;;4878449;29;20515;-67
2022/07/28 05:55:54;;;;;;;4.88;1.90;;;;;;;;;;4878490;29;20029;-67
2022/07/28 05:58:21;;;;;;;4.32;1.50;;;;;;;;;;4878080;29;20456;-67
2022/07/28 06:00:47;;;;;;;5.28;1.63;;;;;;;;;;4878375;29;20027;-67
2022/07/28 06:03:13;;;;;;;3.00;1.38;;;;;;;;;;4878258;29;20071;-67
2022/07/28 06:05:40;;;;;;;3.55;1.70;;;;;;;;;;4878352;29;20047;-67
2022/07/28 06:08:06;;;;;;;2.35;1.55;;;;;;;;;;4872736;29;20022;-67
2022/07/28 06:13:18;;;;;;;4.30;1.50;;;;;;;;;;4877739;29;20043;-67
2022/07/28 06:15:48;;;;;;;3.65;1.25;;;;;;;;;;4878046;29;20510;-67
2022/07/28 06:18:15;;;;;;;4.68;1.52;;;;;;;;;;4878366;29;20397;-67
2022/07/28 06:20:41;;;;;;;1.60;1.40;;;;;;;;;;4878090;29;20059;-67
2022/07/28 06:23:08;;;;;;;5.38;1.60;;;;;;;;;;4860068;29;20033;-67
2022/07/28 06:25:34;;;;;;;5.72;1.52;;;;;;;;;;4866362;29;20444;-67
2022/07/28 06:28:04;;;;;;;4.78;1.83;;;;;;;;;;4862665;29;20033;-67
2022/07/28 06:30:30;;;;;;;7.22;1.70;;;;;;;;;;4862951;29;20037;-67
2022/07/28 06:32:57;;;;;;;3.83;1.48;;;;;;;;;;4863795;29;20021;-67
2022/07/28 06:35:23;;;;;;;4.63;1.20;;;;;;;;;;4874212;29;20037;-67
2022/07/28 06:37:50;;;;;;;10.65;1.70;;;;;;;;;;4872433;29;20036;-67
2022/07/28 06:40:18;;;;;;;2.55;1.38;;;;;;;;;;4867802;29;20025;-67
2022/07/28 06:42:44;;;;;;;4.03;1.40;;;;;;;;;;4862910;29;20085;-67
2022/07/28 06:45:11;;;;;;;2.85;1.60;;;;;;;;;;4862440;29;20052;-67
2022/07/28 06:47:37;;;;;;;3.97;1.42;;;;;;;;;;4862751;29;20033;-67
2022/07/28 06:50:05;;;;;;;4.57;1.50;;;;;;;;;;4877262;29;20462;-67
2022/07/28 06:52:32;;;;;;;1.83;1.17;;;;;;;;;;4880893;29;20029;-67
2022/07/28 06:54:59;;;;;;;4.95;1.60;;;;;;;;;;4880739;29;20032;-67
2022/07/28 06:57:26;;;;;;;5.43;1.35;;;;;;;;;;4881365;29;20031;-67
2022/07/28 06:59:52;;;;;;;2.53;1.20;;;;;;;;;;4866893;29;20025;-67
2022/07/28 07:02:19;;;;;;;1.25;1.15;;;;;;;;;;4864280;29;20032;-67
2022/07/28 07:04:45;;;;;;;13.52;1.90;;;;;;;;;;4890180;29;20433;-67
2022/07/28 07:07:11;;;;;;;7.18;1.48;;;;;;;;;;4891976;29;20414;-67
2022/07/28 07:09:38;;;;;;;2.22;1.20;;;;;;;;;;4896271;29;20110;-67
2022/07/28 07:12:04;;;;;;;5.00;1.27;;;;;;;;;;4899216;29;20040;-67
2022/07/28 07:14:31;;;;;;;3.45;1.25;;;;;;;;;;4899306;29;20498;-68
2022/07/28 07:16:57;;;;;;;2.40;1.33;;;;;;;;;;4899242;29;20024;-67
2022/07/28 07:19:23;;;;;;;5.60;1.30;;;;;;;;;;4899188;29;20438;-67
2022/07/28 07:21:50;;;;;;;5.05;1.40;;;;;;;;;;4875608;29;20167;-67
2022/07/28 07:24:17;;;;;;;4.85;1.80;;;;;;;;;;4881761;29;20028;-67
2022/07/28 07:26:43;;;;;;;3.17;1.90;;;;;;;;;;4898947;29;20031;-67
2022/07/28 07:29:10;;;;;;;2.60;1.90;;;;;;;;;;4876241;29;20029;-68
2022/07/28 07:31:37;;;;;;;3.45;1.65;;;;;;;;;;4878944;29;20040;-67
2022/07/28 07:34:04;;;;;;;4.40;1.75;;;;;;;;;;4879011;29;20059;-67
2022/07/28 07:36:30;;;;;;;1.85;1.75;;;;;;;;;;4879286;29;20036;-68
2022/07/28 07:38:56;;;;;;;8.40;2.20;;;;;;;;;;4864562;29;20057;-68
2022/07/28 07:41:23;;;;;;;2.42;1.88;;;;;;;;;;4862670;29;20045;-67
2022/07/28 07:43:49;;;;;;;4.38;1.60;;;;;;;;;;4860792;29;20034;-68
2022/07/28 07:46:16;;;;;;;4.93;1.90;;;;;;;;;;4867132;29;20043;-67
2022/07/28 07:48:42;;;;;;;4.32;1.48;;;;;;;;;;4871739;29;20018;-68
2022/07/28 07:51:09;;;;;;;3.28;1.95;;;;;;;;;;4887710;29;20032;-67
2022/07/28 07:53:35;;;;;;;4.75;1.60;;;;;;;;;;4897455;29;20374;-67
2022/07/28 07:56:02;;;;;;;1.85;1.50;;;;;;;;;;4868692;29;20049;-68
2022/07/28 07:58:28;;;;;;;4.25;1.67;;;;;;;;;;4883480;29;20066;-67
2022/07/28 08:00:54;;;;;;;3.50;1.63;;;;;;;;;;4897141;29;20036;-67
2022/07/28 08:03:21;;;;;;;1.65;1.23;;;;;;;;;;4883970;29;20048;-68
2022/07/28 08:05:48;;;;;;;5.78;1.30;;;;;;;;;;4878740;29;20043;-68
2022/07/28 08:08:14;;;;;;;2.05;1.13;;;;;;;;;;4881285;29;20048;-68
2022/07/28 08:10:41;;;;;;;4.97;1.42;;;;;;;;;;4851386;29;20052;-68
2022/07/28 08:13:07;;;;;;;8.80;1.90;;;;;;;;;;4874152;29;20029;-68
2022/07/28 08:15:34;;;;;;;3.25;1.42;;;;;;;;;;4868095;29;20035;-68
2022/07/28 08:18:01;;;;;;;2.10;1.50;;;;;;;;;;4868986;29;20045;-68
2022/07/28 08:20:27;;;;;;;3.25;1.40;;;;;;;;;;4865002;29;20044;-68
2022/07/28 08:22:55;;;;;;;3.15;1.38;;;;;;;;;;4854770;29;20041;-68
2022/07/28 08:25:21;;;;;;;7.35;1.33;;;;;;;;;;4878582;29;20032;-68
2022/07/28 08:27:47;;;;;;;3.80;1.50;;;;;;;;;;4878377;29;20033;-68
2022/07/28 08:30:14;;;;;;;4.47;1.60;;;;;;;;;;4873979;29;20045;-67
2022/07/28 08:32:41;;;;;;;13.52;6.22;;;;;;;;;;4875091;29;20041;-67
2022/07/28 08:35:08;;;;;;;1.98;1.20;;;;;;;;;;4878276;29;20029;-66
2022/07/28 08:37:35;;;;;;;4.15;1.10;;;;;;;;;;4877758;29;20386;-66
2022/07/28 08:40:03;;;;;;;9.48;1.40;;;;;;;;;;4877864;29;20051;-66
2022/07/28 08:42:42;;;;;;;6.07;1.23;;;;;;;;;;4864143;29;20032;-66
2022/07/28 08:45:10;;;;;;;4.17;1.20;;;;;;;;;;4859360;29;20077;-66
2022/07/28 08:47:36;;;;;;;8.23;1.40;;;;;;;;;;4864200;29;20520;-65
2022/07/28 08:50:04;;;;;;;6.85;2.10;;;;;;;;;;4877230;29;20549;-65
2022/07/28 08:52:31;;;;;;;4.22;1.20;;;;;;;;;;4878028;29;20037;-66
2022/07/28 08:55:00;;;;;;;4.07;1.30;;;;;;;;;;4877945;29;20029;-66
2022/07/28 08:57:27;;;;;;;1.35;0.90;;;;;;;;;;4867512;29;20030;-66
2022/07/28 08:59:53;;;;;;;8.38;1.20;;;;;;;;;;4859358;29;20422;-66
2022/07/28 09:02:20;;;;;;;2.30;1.20;;;;;;;;;;4870945;29;20286;-66
2022/07/28 09:04:47;;;;;;;1.95;1.20;;;;;;;;;;4877584;29;20566;-66
2022/07/28 09:07:14;;;;;;;1.48;1.05;;;;;;;;;;4873912;29;20513;-66
2022/07/28 09:09:40;;;;;;;4.60;1.13;;;;;;;;;;4859021;29;20036;-66
2022/07/28 09:12:07;;;;;;;2.03;1.05;;;;;;;;;;4827570;29;20500;-66
2022/07/28 09:14:33;;;;;;;5.00;0.98;;;;;;;;;;4859357;29;20022;-65
2022/07/28 09:17:00;;;;;;;4.80;1.25;;;;;;;;;;4859113;29;20029;-66
2022/07/28 09:19:27;;;;;;;1.23;0.95;;;;;;;;;;4866165;29;20032;-66
2022/07/28 09:21:55;;;;;;;2.60;1.10;;;;;;;;;;4877178;29;20410;-66
2022/07/28 09:24:32;;;;;;;4.07;1.10;;;;;;;;;;4877411;29;20037;-66
2022/07/28 09:27:00;;;;;;;2.25;1.30;;;;;;;;;;4876893;29;20221;-66
2022/07/28 09:29:26;;;;;;;7.53;1.08;;;;;;;;;;4860876;29;20026;-65
2022/07/28 09:31:53;;;;;;;4.57;1.20;;;;;;;;;;4870803;29;20036;-66
2022/07/28 09:34:19;;;;;;;2.25;1.10;;;;;;;;;;4858766;29;20506;-66
2022/07/28 09:36:46;;;;;;;1.77;1.05;;;;;;;;;;4866772;29;20054;-65
2022/07/28 09:39:27;;;;;;;3.92;1.30;;;;;;;;;;4871474;29;20033;-66
2022/07/28 09:41:54;;;;;;;4.03;0.77;;;;;;;;;;4858711;29;20041;-66
2022/07/28 09:44:21;;;;;;;5.60;1.35;;;;;;;;;;4858855;29;20039;-66
2022/07/28 09:46:48;;;;;;;2.83;0.88;;;;;;;;;;4858735;29;20042;-66
2022/07/28 09:49:15;;;;;;;1.77;0.90;;;;;;;;;;4858045;29;20045;-66
2022/07/28 09:51:41;;;;;;;2.13;0.95;;;;;;;;;;4876056;29;20033;-65
2022/07/28 09:54:11;;;;;;;3.72;1.10;;;;;;;;;;4877290;29;20040;-65
2022/07/28 09:56:38;;;;;;;3.40;1.17;;;;;;;;;;4876621;29;20029;-66
2022/07/28 09:59:06;;;;;;;4.85;0.90;;;;;;;;;;4877119;29;20037;-66
2022/07/28 10:01:33;;;;;;;2.40;1.10;;;;;;;;;;4860903;29;20021;-66
2022/07/28 10:04:00;;;;;;;2.45;1.08;;;;;;;;;;4876000;29;20522;-66
2022/07/28 10:06:28;;;;;;;2.70;1.10;;;;;;;;;;4863227;29;20036;-65
2022/07/28 10:08:55;;;;;;;1.88;1.00;;;;;;;;;;4876912;29;20033;-65
2022/07/28 10:11:23;;;;;;;4.07;1.40;;;;;;;;;;4888122;29;20166;-66
2022/07/28 10:13:59;;;;;;;2.60;0.90;;;;;;;;;;4894398;29;20387;-66
2022/07/28 10:16:26;;;;;;;1.98;1.17;;;;;;;;;;4895729;29;20033;-66
2022/07/28 10:18:53;;;;;;;5.60;1.33;;;;;;;;;;4895604;29;20024;-66
2022/07/28 10:21:20;;;;;;;0.93;0.88;;;;;;;;;;4895170;29;20554;-66
2022/07/28 10:23:47;;;;;;;4.32;1.10;;;;;;;;;;4879899;29;20513;-66
2022/07/28 10:26:14;;;;;;;1.23;1.08;;;;;;;;;;4876189;29;20033;-66
2022/07/28 10:28:43;;;;;;;2.33;1.05;;;;;;;;;;4875973;29;20084;-66
2022/07/28 10:31:10;;;;;;;1.95;0.82;;;;;;;;;;4859602;29;20409;-66
2022/07/28 10:33:43;;;;;;;2.78;1.20;;;;;;;;;;4876689;29;20029;-66
2022/07/28 10:36:10;;;;;;;1.42;0.90;;;;;;;;;;4876484;29;20025;-66
2022/07/28 10:38:36;;;;;;;2.67;0.88;;;;;;;;;;4875904;29;20475;-66
2022/07/28 10:41:04;;;;;;;6.18;1.00;;;;;;;;;;4875550;29;20037;-65
2022/07/28 10:43:31;;;;;;;3.85;0.90;;;;;;;;;;4876116;29;20021;-66
2022/07/28 10:46:01;;;;;;;2.60;1.08;;;;;;;;;;4876562;29;20390;-65
2022/07/28 10:48:27;;;;;;;2.00;1.00;;;;;;;;;;4876170;29;20028;-66
2022/07/28 10:50:54;;;;;;;3.38;1.00;;;;;;;;;;4876900;29;20045;-65
2022/07/28 10:53:34;;;;;;;4.35;1.17;;;;;;;;;;4877316;29;20029;-66
2022/07/28 10:56:13;;;;;;;5.20;1.17;;;;;;;;;;4876812;29;20037;-67
2022/07/28 10:58:40;;;;;;;3.10;1.55;;;;;;;;;;4844399;29;20075;-67
2022/07/28 11:01:06;;;;;;;4.85;1.30;;;;;;;;;;4876743;29;20021;-66
2022/07/28 11:03:38;;;;;;;6.05;1.20;;;;;;;;;;4876468;29;20056;-67
2022/07/28 11:06:23;;;;;;;2.22;1.10;;;;;;;;;;4877787;29;20044;-66
2022/07/28 11:08:51;;;;;;;1.55;1.00;;;;;;;;;;4861575;29;20042;-66
2022/07/28 11:11:36;;;;;;;4.10;1.00;;;;;;;;;;4861706;29;20026;-69
2022/07/28 11:14:21;;;;;;;4.63;1.20;;;;;;;;;;4861268;29;20040;-69
2022/07/28 11:17:09;;;;;;;1.00;0.90;;;;;;;;;;4861964;29;20501;-70
2022/07/28 11:19:44;;;;;;;2.03;1.20;;;;;;;;;;4861543;29;20402;-66
2022/07/28 11:22:14;;;;;;;3.22;1.00;;;;;;;;;;4845773;29;20036;-67
2022/07/28 11:27:46;;;;;;;3.47;1.08;;;;;;;;;;4864368;29;20037;-67
2022/07/28 11:30:35;;;;;;;4.88;1.30;;;;;;;;;;4879059;29;20039;-68
2022/07/28 11:33:03;;;;;;;1.83;1.08;;;;;;;;;;4879480;29;20032;-67
2022/07/28 11:35:38;;;;;;;4.07;1.42;;;;;;;;;;4879435;29;20029;-67
2022/07/28 11:38:05;;;;;;;2.70;1.10;;;;;;;;;;4879399;29;20035;-68
2022/07/28 11:40:32;;;;;;;3.47;1.23;;;;;;;;;;4879345;29;20406;-67
2022/07/28 11:43:17;;;;;;;1.63;1.00;;;;;;;;;;4861787;29;20039;-67
2022/07/28 11:45:44;;;;;;;2.85;1.20;;;;;;;;;;4873037;29;20033;-68
2022/07/28 11:48:14;;;;;;;3.15;1.30;;;;;;;;;;4878873;29;20023;-67
2022/07/28 11:50:41;;;;;;;3.75;1.13;;;;;;;;;;4878955;29;20045;-67
2022/07/28 11:53:07;;;;;;;4.10;1.45;;;;;;;;;;4878163;29;20041;-67
2022/07/28 11:55:34;;;;;;;3.60;1.17;;;;;;;;;;4878160;29;20039;-67
2022/07/28 11:58:01;;;;;;;3.42;1.30;;;;;;;;;;4860331;29;20025;-67
2022/07/28 12:00:28;;;;;;;2.00;1.17;;;;;;;;;;4860182;29;20037;-67
2022/07/28 12:02:56;;;;;;;4.63;1.40;;;;;;;;;;4860207;29;20089;-66
2022/07/28 12:05:22;;;;;;;8.73;1.38;;;;;;;;;;4874765;29;20029;-65
2022/07/28 12:07:52;;;;;;;8.50;1.23;;;;;;;;;;4890046;29;20036;-67
2022/07/28 12:10:22;;;;;;;4.63;1.10;;;;;;;;;;4882320;29;20037;-67
2022/07/28 12:12:52;;;;;;;1.60;1.10;;;;;;;;;;4864484;29;20029;-67
2022/07/28 12:15:18;;;;;;;3.28;1.20;;;;;;;;;;4861950;29;20266;-68
2022/07/28 12:17:45;;;;;;;3.42;1.30;;;;;;;;;;4873554;29;20025;-67
2022/07/28 12:20:12;;;;;;;3.05;1.10;;;;;;;;;;4859748;29;20029;-67
2022/07/28 12:22:39;;;;;;;5.38;1.23;;;;;;;;;;4866703;29;20017;-67
2022/07/28 12:25:05;;;;;;;8.15;1.58;;;;;;;;;;4875591;29;20107;-68
2022/07/28 12:27:33;;;;;;;1.35;0.80;;;;;;;;;;4861966;29;20029;-67
2022/07/28 12:30:00;;;;;;;4.68;1.00;;;;;;;;;;4868280;29;20045;-67
2022/07/28 12:32:31;;;;;;;2.05;1.27;;;;;;;;;;4874095;29;20037;-67
2022/07/28 12:34:58;;;;;;;4.28;1.20;;;;;;;;;;4876532;29;20049;-67
2022/07/28 12:37:24;;;;;;;2.72;1.40;;;;;;;;;;4878121;29;20146;-67
2022/07/28 12:39:51;;;;;;;4.10;1.30;;;;;;;;;;4878268;29;20033;-67
2022/07/28 12:42:18;;;;;;;2.38;1.30;;;;;;;;;;4878428;29;20027;-67
2022/07/28 12:44:46;;;;;;;3.38;1.10;;;;;;;;;;4874991;29;20044;-67
2022/07/28 12:47:13;;;;;;;4.63;0.82;;;;;;;;;;4868957;29;20023;-68
2022/07/28 12:49:41;;;;;;;3.67;1.02;;;;;;;;;;4872116;29;20037;-67
2022/07/28 12:52:14;;;;;;;5.10;1.13;;;;;;;;;;4861525;29;20029;-67
2022/07/28 12:54:41;;;;;;;5.10;1.30;;;;;;;;;;4861559;29;20018;-69
2022/07/28 12:57:07;;;;;;;3.42;1.10;;;;;;;;;;4868995;29;20029;-68
2022/07/28 12:59:35;;;;;;;1.83;1.10;;;;;;;;;;4859072;29;20030;-67
2022/07/28 13:02:01;;;;;;;4.43;1.20;;;;;;;;;;4874798;29;20041;-67
2022/07/28 13:04:38;;;;;;;7.32;1.33;;;;;;;;;;4877109;29;20049;-67
2022/07/28 13:07:14;;;;;;;2.70;1.25;;;;;;;;;;4880585;29;20041;-67
2022/07/28 13:09:44;;;;;;;4.85;1.30;;;;;;;;;;4877333;29;20041;-67
2022/07/28 13:12:17;;;;;;;3.42;1.20;;;;;;;;;;4877266;29;20025;-67
2022/07/28 13:14:45;;;;;;;4.68;1.10;;;;;;;;;;4865454;29;20048;-67
2022/07/28 13:17:11;;;;;;;5.35;1.33;;;;;;;;;;4870051;29;20502;-67
2022/07/28 13:19:38;;;;;;;4.57;1.17;;;;;;;;;;4866377;29;20040;-67
2022/07/28 13:22:04;;;;;;;3.50;1.30;;;;;;;;;;4868512;29;20033;-67
2022/07/28 13:24:30;;;;;;;7.57;1.52;;;;;;;;;;4876773;29;20342;-67
2022/07/28 13:26:57;;;;;;;5.38;1.00;;;;;;;;;;4859648;29;20037;-67
2022/07/28 13:29:24;;;;;;;3.42;1.70;;;;;;;;;;4876754;29;20040;-67
2022/07/28 13:31:53;;;;;;;6.13;1.27;;;;;;;;;;4876700;29;20054;-67
2022/07/28 13:34:19;;;;;;;6.18;1.40;;;;;;;;;;4876761;29;20073;-68
2022/07/28 13:36:46;;;;;;;5.55;1.52;;;;;;;;;;4871844;29;20041;-67
2022/07/28 13:39:13;;;;;;;3.67;1.10;;;;;;;;;;4863403;29;20452;-67
2022/07/28 13:41:39;;;;;;;2.90;1.20;;;;;;;;;;4869595;29;20029;-68
2022/07/28 13:44:06;;;;;;;2.13;1.30;;;;;;;;;;4877144;29;20544;-67
2022/07/28 13:46:32;;;;;;;2.38;1.33;;;;;;;;;;4842915;29;20044;-68
2022/07/28 13:48:58;;;;;;;3.97;1.20;;;;;;;;;;4858489;29;20034;-67
2022/07/28 13:51:25;;;;;;;4.05;1.33;;;;;;;;;;4858522;29;20503;-70
2022/07/28 13:53:51;;;;;;;3.88;1.30;;;;;;;;;;4857924;29;20036;-67
2022/07/28 13:56:18;;;;;;;3.85;1.10;;;;;;;;;;4858263;29;20041;-69
2022/07/28 13:58:44;;;;;;;2.97;1.13;;;;;;;;;;4876341;29;20061;-69
2022/07/28 14:01:10;;;;;;;3.15;1.10;;;;;;;;;;4876853;29;20029;-69
2022/07/28 14:03:37;;;;;;;3.50;1.25;;;;;;;;;;4876748;29;20085;-70
2022/07/28 14:06:03;;;;;;;7.07;1.27;;;;;;;;;;4860916;29;20029;-70
2022/07/28 14:08:29;;;;;;;3.58;1.20;;;;;;;;;;4878544;29;20490;-69
2022/07/28 14:10:57;;;;;;;2.90;1.48;;;;;;;;;;4876534;29;20045;-70
2022/07/28 14:13:24;;;;;;;7.97;1.40;;;;;;;;;;4876958;29;20049;-69
2022/07/28 14:15:50;;;;;;;3.97;1.35;;;;;;;;;;4876908;29;20052;-69
2022/07/28 14:18:17;;;;;;;6.00;1.40;;;;;;;;;;4877034;29;20039;-69
2022/07/28 14:20:43;;;;;;;2.38;1.33;;;;;;;;;;4876825;29;20553;-69
2022/07/28 14:23:09;;;;;;;4.53;1.20;;;;;;;;;;4876517;29;20478;-69
2022/07/28 14:25:36;;;;;;;5.32;1.33;;;;;;;;;;4876681;29;20037;-69
2022/07/28 14:28:02;;;;;;;5.22;1.30;;;;;;;;;;4876613;29;20025;-69
2022/07/28 14:30:29;;;;;;;6.30;1.20;;;;;;;;;;4870021;29;20414;-70
2022/07/28 14:32:56;;;;;;;4.25;1.33;;;;;;;;;;4870788;29;20512;-70
2022/07/28 14:35:22;;;;;;;3.58;1.10;;;;;;;;;;4876555;29;20041;-69
2022/07/28 14:37:49;;;;;;;2.75;1.30;;;;;;;;;;4876663;29;20033;-69
2022/07/28 14:40:16;;;;;;;3.95;1.00;;;;;;;;;;4868551;29;20029;-68
2022/07/28 14:42:42;;;;;;;3.83;1.13;;;;;;;;;;4874002;29;20029;-68
2022/07/28 14:45:09;;;;;;;2.53;1.25;;;;;;;;;;4879140;29;20059;-69
2022/07/28 14:47:35;;;;;;;3.42;1.20;;;;;;;;;;4861790;29;20048;-68
2022/07/28 14:50:02;;;;;;;1.90;1.40;;;;;;;;;;4861475;29;20045;-68
2022/07/28 14:52:29;;;;;;;2.40;1.10;;;;;;;;;;4861437;29;20502;-69
2022/07/28 14:54:56;;;;;;;4.95;1.27;;;;;;;;;;4861260;29;20034;-68